Time;durP1;ratioP1;P1;durP2;ratioP2;P2;SDS_P1;SDS_P2;PMS_P1;PMS_P2;Temp;Humidity;BMP_temperature;BMP_pressure;BME280_temperature;BME280_humidity;BME280_pressure;Samples;Min_cycle;Max_cycle;Signal;HPM_P1;HPM_P2
2023/03/04 00:00:23;;;;;;;0.10;0.10;;;5.80;99.90;;;;;;5051735;28;20066;-71
2023/03/04 00:02:49;;;;;;;0.13;0.13;;;5.80;99.90;;;;;;5032013;28;20509;-71
2023/03/04 00:05:14;;;;;;;0.20;0.20;;;5.80;99.90;;;;;;5032841;28;20390;-71
2023/03/04 00:07:40;;;;;;;0.20;0.20;;;5.80;99.90;;;;;;5043153;28;20032;-72
2023/03/04 00:10:06;;;;;;;0.10;0.10;;;5.80;99.90;;;;;;5052539;28;20029;-71
2023/03/04 00:12:31;;;;;;;0.10;0.10;;;5.90;99.90;;;;;;5052998;28;20086;-72
2023/03/04 00:14:57;;;;;;;0.10;0.10;;;5.90;99.90;;;;;;5053075;28;20056;-72
2023/03/04 00:17:23;;;;;;;0.17;0.17;;;5.90;99.90;;;;;;5048985;28;20157;-71
2023/03/04 00:19:48;;;;;;;0.17;0.17;;;6.00;99.90;;;;;;5052555;28;20037;-71
2023/03/04 00:22:14;;;;;;;0.20;0.20;;;6.00;99.90;;;;;;5052954;28;20079;-71
2023/03/04 00:24:40;;;;;;;0.10;0.10;;;6.10;99.90;;;;;;5053093;28;20032;-72
2023/03/04 00:27:05;;;;;;;0.20;0.20;;;6.20;99.90;;;;;;5052653;28;20108;-71
2023/03/04 00:29:31;;;;;;;0.10;0.10;;;6.20;99.90;;;;;;5036670;28;20077;-71
2023/03/04 00:31:56;;;;;;;0.10;0.10;;;6.20;99.90;;;;;;5032626;28;20476;-71
2023/03/04 00:34:24;;;;;;;0.20;0.20;;;6.20;99.90;;;;;;5045699;28;20645;-71
2023/03/04 00:36:50;;;;;;;0.20;0.20;;;6.30;99.90;;;;;;5052685;28;20116;-71
2023/03/04 00:39:16;;;;;;;0.20;0.20;;;6.30;99.90;;;;;;5052400;28;20096;-72
2023/03/04 00:41:41;;;;;;;0.10;0.10;;;6.30;99.90;;;;;;5052920;28;20025;-71
2023/03/04 00:44:07;;;;;;;0.20;0.20;;;6.30;99.90;;;;;;5052621;28;20100;-71
2023/03/04 00:46:32;;;;;;;0.20;0.20;;;6.40;99.90;;;;;;5052587;28;20029;-71
2023/03/04 00:48:58;;;;;;;0.15;0.15;;;6.30;99.90;;;;;;5052311;28;20032;-71
2023/03/04 00:51:23;;;;;;;0.10;0.10;;;6.30;99.90;;;;;;5052565;28;20031;-72
2023/03/04 00:53:51;;;;;;;0.13;0.13;;;6.30;99.90;;;;;;5053037;28;20466;-71
2023/03/04 00:56:16;;;;;;;0.20;0.20;;;6.20;99.90;;;;;;5052556;28;20389;-71
2023/03/04 00:58:42;;;;;;;0.20;0.20;;;6.20;99.90;;;;;;5052577;28;20029;-71
2023/03/04 01:01:08;;;;;;;0.20;0.20;;;6.20;99.90;;;;;;5051958;28;20025;-71
2023/03/04 01:03:34;;;;;;;0.20;0.20;;;6.10;99.90;;;;;;5038334;28;20432;-71
2023/03/04 01:06:00;;;;;;;0.10;0.10;;;6.00;99.90;;;;;;5038101;28;20083;-71
2023/03/04 01:08:25;;;;;;;0.20;0.20;;;6.00;99.90;;;;;;5043790;28;20065;-72
2023/03/04 01:10:51;;;;;;;0.20;0.20;;;5.90;99.90;;;;;;5035451;28;20029;-71
2023/03/04 01:13:17;;;;;;;0.10;0.10;;;5.80;99.90;;;;;;5053210;28;20021;-71
2023/03/04 01:15:43;;;;;;;0.10;0.10;;;5.80;99.90;;;;;;5055709;28;20037;-71
2023/03/04 01:18:09;;;;;;;0.10;0.10;;;5.80;99.90;;;;;;5055938;28;20493;-71
2023/03/04 01:20:34;;;;;;;0.10;0.10;;;5.90;99.90;;;;;;5055664;28;20021;-71
2023/03/04 01:23:00;;;;;;;0.20;0.20;;;5.90;99.90;;;;;;5055177;28;20398;-71
2023/03/04 01:25:25;;;;;;;0.20;0.20;;;5.90;99.90;;;;;;5055772;28;20036;-71
2023/03/04 01:27:51;;;;;;;0.28;0.28;;;5.90;99.90;;;;;;5055561;28;20032;-72
2023/03/04 01:30:17;;;;;;;0.20;0.20;;;5.90;99.90;;;;;;5037130;28;20025;-71
2023/03/04 01:32:42;;;;;;;0.20;0.20;;;6.00;99.90;;;;;;5055311;28;20038;-71
2023/03/04 01:35:08;;;;;;;0.20;0.20;;;6.00;99.90;;;;;;5055781;28;20040;-71
2023/03/04 01:37:33;;;;;;;0.10;0.10;;;6.00;99.90;;;;;;5055273;28;20033;-71
2023/03/04 01:39:59;;;;;;;0.20;0.20;;;6.00;99.90;;;;;;5053926;28;20601;-71
2023/03/04 01:42:29;;;;;;;0.20;0.20;;;6.00;99.90;;;;;;5055522;28;20036;-71
2023/03/04 01:44:54;;;;;;;0.20;0.20;;;6.00;99.90;;;;;;5032142;28;20032;-72
2023/03/04 01:47:23;;;;;;;0.20;0.20;;;6.00;99.90;;;;;;5035617;28;20021;-72
2023/03/04 01:49:53;;;;;;;0.20;0.20;;;6.00;99.90;;;;;;5044525;28;20068;-71
2023/03/04 01:52:19;;;;;;;0.15;0.15;;;6.00;99.90;;;;;;5034863;28;20491;-71
2023/03/04 01:54:45;;;;;;;0.20;0.20;;;6.00;99.90;;;;;;5035515;28;20063;-71
2023/03/04 01:57:25;;;;;;;0.10;0.10;;;6.00;99.90;;;;;;5034085;28;20483;-71
2023/03/04 02:00:13;;;;;;;0.20;0.20;;;6.00;99.90;;;;;;5019425;28;20029;-71
2023/03/04 02:02:39;;;;;;;0.20;0.20;;;6.00;99.90;;;;;;5034990;28;20105;-72
2023/03/04 02:05:05;;;;;;;0.13;0.13;;;6.00;99.90;;;;;;5045099;28;20117;-71
2023/03/04 02:07:30;;;;;;;0.15;0.15;;;5.90;99.90;;;;;;5043751;28;20025;-71
2023/03/04 02:09:56;;;;;;;0.10;0.10;;;5.90;99.90;;;;;;5050091;28;20030;-71
2023/03/04 02:12:21;;;;;;;0.20;0.20;;;6.00;99.90;;;;;;5036230;28;20021;-71
2023/03/04 02:14:49;;;;;;;0.10;0.10;;;6.10;99.90;;;;;;5053976;28;20049;-71
2023/03/04 02:17:14;;;;;;;0.20;0.20;;;6.00;99.90;;;;;;5051952;28;20070;-71
2023/03/04 02:19:55;;;;;;;0.20;0.20;;;6.10;99.90;;;;;;5054764;28;20032;-71
2023/03/04 02:22:20;;;;;;;0.20;0.20;;;6.00;99.90;;;;;;5054050;28;20017;-72
2023/03/04 02:24:53;;;;;;;0.20;0.20;;;6.10;99.90;;;;;;5044739;28;20021;-71
2023/03/04 02:27:19;;;;;;;0.20;0.20;;;6.00;99.90;;;;;;5019949;28;20033;-72
2023/03/04 02:29:47;;;;;;;0.20;0.20;;;6.00;99.90;;;;;;5038365;28;20128;-71
2023/03/04 02:32:15;;;;;;;0.20;0.20;;;6.00;99.90;;;;;;5054412;28;20036;-72
2023/03/04 02:34:47;;;;;;;0.13;0.13;;;6.00;99.90;;;;;;5053033;28;20086;-71
2023/03/04 02:37:13;;;;;;;0.20;0.20;;;6.00;99.90;;;;;;5035604;28;20463;-72
2023/03/04 02:39:41;;;;;;;0.22;0.22;;;6.00;99.90;;;;;;5052377;28;20029;-71
2023/03/04 02:42:08;;;;;;;0.20;0.20;;;6.00;99.90;;;;;;5053694;28;20025;-71
2023/03/04 02:44:36;;;;;;;0.13;0.13;;;6.00;99.90;;;;;;5053240;28;20047;-71
2023/03/04 02:47:04;;;;;;;0.20;0.20;;;6.00;99.90;;;;;;5054100;28;20398;-71
2023/03/04 02:49:31;;;;;;;0.20;0.20;;;5.90;99.90;;;;;;5053080;28;20051;-71
2023/03/04 02:52:12;;;;;;;0.20;0.20;;;6.00;99.90;;;;;;5036529;28;20029;-71
2023/03/04 02:54:38;;;;;;;0.20;0.20;;;5.90;99.90;;;;;;5053738;28;20074;-71
2023/03/04 02:57:07;;;;;;;0.30;0.30;;;5.80;99.90;;;;;;5054243;28;20017;-71
2023/03/04 02:59:34;;;;;;;0.20;0.20;;;5.80;99.90;;;;;;5054187;28;20055;-72
2023/03/04 03:02:00;;;;;;;0.10;0.10;;;5.80;99.90;;;;;;5054286;28;20040;-72
2023/03/04 03:04:26;;;;;;;0.20;0.20;;;5.80;99.90;;;;;;5054766;28;20462;-72
2023/03/04 03:06:52;;;;;;;0.20;0.20;;;5.80;99.90;;;;;;5053811;28;20029;-71
2023/03/04 03:09:18;;;;;;;0.20;0.20;;;5.70;99.90;;;;;;5054124;28;20021;-71
2023/03/04 03:11:44;;;;;;;0.20;0.20;;;5.70;99.90;;;;;;5036236;28;20032;-72
2023/03/04 03:14:09;;;;;;;0.20;0.20;;;5.70;99.90;;;;;;5054087;28;20025;-72
2023/03/04 03:16:35;;;;;;;0.20;0.20;;;5.70;99.90;;;;;;5053315;28;20466;-72
2023/03/04 03:19:01;;;;;;;0.20;0.20;;;5.70;99.90;;;;;;5052523;28;20082;-72
2023/03/04 03:21:26;;;;;;;0.20;0.20;;;5.70;99.90;;;;;;5054248;28;20024;-72
2023/03/04 03:23:52;;;;;;;0.10;0.10;;;5.70;99.90;;;;;;5053829;28;20115;-72
2023/03/04 03:26:18;;;;;;;0.17;0.17;;;5.70;99.90;;;;;;5051488;28;20063;-71
2023/03/04 03:28:44;;;;;;;0.30;0.30;;;5.70;99.90;;;;;;5053683;28;20025;-72
2023/03/04 03:31:10;;;;;;;0.10;0.10;;;5.60;99.90;;;;;;5083814;22;20530;-71
2023/03/04 03:33:36;;;;;;;0.10;0.10;;;5.60;99.90;;;;;;5055155;28;20383;-71
2023/03/04 03:36:02;;;;;;;0.20;0.20;;;5.60;99.90;;;;;;5054472;28;20040;-71
2023/03/04 03:38:27;;;;;;;0.20;0.20;;;5.50;99.90;;;;;;5054526;28;20028;-71
2023/03/04 03:40:53;;;;;;;0.15;0.15;;;5.50;99.90;;;;;;5054756;28;20146;-71
2023/03/04 03:43:18;;;;;;;0.20;0.20;;;5.50;99.90;;;;;;5054346;28;20025;-71
2023/03/04 03:45:44;;;;;;;0.20;0.20;;;5.50;99.90;;;;;;5054524;28;20108;-71
2023/03/04 03:48:10;;;;;;;0.10;0.10;;;5.50;99.90;;;;;;5054751;28;20501;-71
2023/03/04 03:50:35;;;;;;;0.20;0.20;;;5.50;99.90;;;;;;5054745;28;20037;-71
2023/03/04 03:53:01;;;;;;;0.20;0.20;;;5.50;99.90;;;;;;5054786;28;20032;-71
2023/03/04 03:55:26;;;;;;;0.10;0.10;;;5.40;99.90;;;;;;5054510;28;20482;-71
2023/03/04 03:57:52;;;;;;;0.20;0.20;;;5.40;99.90;;;;;;5054372;28;20108;-71
2023/03/04 04:00:18;;;;;;;0.10;0.10;;;5.40;99.90;;;;;;5054454;28;20025;-71
2023/03/04 04:02:44;;;;;;;0.20;0.20;;;5.40;99.90;;;;;;5054855;28;20029;-71
2023/03/04 04:05:10;;;;;;;0.17;0.17;;;5.40;99.90;;;;;;5054396;28;20025;-71
2023/03/04 04:07:36;;;;;;;0.22;0.22;;;5.40;99.90;;;;;;5054589;28;20425;-71
2023/03/04 04:10:03;;;;;;;0.20;0.20;;;5.40;99.90;;;;;;5053731;28;20060;-71
2023/03/04 04:12:29;;;;;;;0.13;0.13;;;5.40;99.90;;;;;;5054882;28;20383;-71
2023/03/04 04:14:54;;;;;;;0.20;0.20;;;5.40;99.90;;;;;;5054112;28;20013;-71
2023/03/04 04:17:20;;;;;;;0.20;0.20;;;5.30;99.90;;;;;;5053210;28;20116;-71
2023/03/04 04:19:45;;;;;;;0.17;0.17;;;5.30;99.90;;;;;;5042241;28;20108;-71
2023/03/04 04:22:17;;;;;;;0.20;0.20;;;5.30;99.90;;;;;;5043820;28;20497;-71
2023/03/04 04:24:42;;;;;;;0.20;0.20;;;5.30;99.90;;;;;;5053304;28;20025;-71
2023/03/04 04:27:08;;;;;;;0.20;0.20;;;5.30;99.90;;;;;;5053982;28;20021;-70
2023/03/04 04:29:33;;;;;;;0.20;0.20;;;5.20;99.90;;;;;;5054864;28;20079;-71
2023/03/04 04:31:59;;;;;;;0.20;0.20;;;5.20;99.90;;;;;;5053263;28;20040;-71
2023/03/04 04:34:25;;;;;;;0.10;0.10;;;5.20;99.90;;;;;;5054291;28;20062;-71
2023/03/04 04:36:51;;;;;;;0.20;0.20;;;5.20;99.90;;;;;;5054658;28;20029;-71
2023/03/04 04:39:16;;;;;;;0.20;0.20;;;5.10;99.90;;;;;;5058576;28;20025;-71
2023/03/04 04:41:43;;;;;;;0.10;0.10;;;5.20;99.90;;;;;;5039852;28;20024;-71
2023/03/04 04:44:09;;;;;;;0.20;0.20;;;5.20;99.90;;;;;;5057661;28;20025;-71
2023/03/04 04:46:41;;;;;;;0.20;0.20;;;5.10;99.90;;;;;;5057687;28;20032;-71
2023/03/04 04:49:07;;;;;;;0.17;0.17;;;5.10;99.90;;;;;;5039730;28;20036;-71
2023/03/04 04:51:34;;;;;;;0.13;0.13;;;5.10;99.90;;;;;;5057221;28;20044;-71
2023/03/04 04:54:01;;;;;;;0.20;0.20;;;5.10;99.90;;;;;;5057781;28;20029;-71
2023/03/04 04:56:27;;;;;;;0.10;0.10;;;5.10;99.90;;;;;;5057951;28;20029;-71
2023/03/04 04:58:58;;;;;;;0.20;0.20;;;5.10;99.90;;;;;;5057217;28;20072;-71
2023/03/04 05:01:25;;;;;;;0.20;0.20;;;5.10;99.90;;;;;;5057417;28;20025;-71
2023/03/04 05:03:54;;;;;;;0.17;0.17;;;5.10;99.90;;;;;;5057464;28;20104;-71
2023/03/04 05:06:21;;;;;;;0.20;0.20;;;5.10;99.90;;;;;;5039600;28;20032;-71
2023/03/04 05:08:46;;;;;;;0.20;0.20;;;5.00;99.90;;;;;;5057642;28;20417;-71
2023/03/04 05:11:12;;;;;;;0.20;0.20;;;5.00;99.90;;;;;;5056571;28;20025;-71
2023/03/04 05:13:38;;;;;;;0.20;0.20;;;5.00;99.90;;;;;;5039611;28;20025;-71
2023/03/04 05:16:03;;;;;;;0.20;0.20;;;5.00;99.90;;;;;;5056872;28;20036;-71
2023/03/04 05:18:29;;;;;;;0.20;0.20;;;5.00;99.90;;;;;;5057350;28;20112;-71
2023/03/04 05:20:57;;;;;;;0.20;0.20;;;5.00;99.90;;;;;;5056526;28;20422;-71
2023/03/04 05:23:23;;;;;;;0.10;0.10;;;4.90;99.90;;;;;;5056403;28;20399;-71
2023/03/04 05:25:52;;;;;;;0.10;0.10;;;4.90;99.90;;;;;;5056714;28;20033;-71
2023/03/04 05:28:18;;;;;;;0.20;0.20;;;4.90;99.90;;;;;;5056599;28;20032;-71
2023/03/04 05:30:45;;;;;;;0.20;0.20;;;4.90;99.90;;;;;;5056870;28;20462;-71
2023/03/04 05:33:13;;;;;;;0.13;0.13;;;4.90;99.90;;;;;;5056405;28;20099;-71
2023/03/04 05:35:40;;;;;;;0.13;0.13;;;4.90;99.90;;;;;;5039240;28;20025;-71
2023/03/04 05:38:07;;;;;;;0.20;0.20;;;4.90;99.90;;;;;;5055897;28;20031;-71
2023/03/04 05:40:33;;;;;;;0.20;0.20;;;4.80;99.90;;;;;;5056851;28;20028;-71
2023/03/04 05:42:58;;;;;;;0.20;0.20;;;4.90;99.90;;;;;;5057001;28;20029;-71
2023/03/04 05:45:26;;;;;;;0.20;0.20;;;4.90;99.90;;;;;;5056283;28;20036;-71
2023/03/04 05:47:52;;;;;;;0.20;0.20;;;4.80;99.90;;;;;;5056596;28;20040;-71
2023/03/04 05:50:18;;;;;;;0.20;0.20;;;4.80;99.90;;;;;;5055688;28;20037;-71
2023/03/04 05:52:44;;;;;;;0.20;0.20;;;4.80;99.90;;;;;;5056704;28;20021;-71
2023/03/04 05:55:10;;;;;;;0.20;0.20;;;4.80;99.90;;;;;;5055580;28;20036;-71
2023/03/04 05:57:35;;;;;;;0.20;0.20;;;4.80;99.90;;;;;;5056587;28;20031;-71
2023/03/04 06:00:04;;;;;;;0.20;0.20;;;4.70;99.90;;;;;;5043593;28;20037;-71
2023/03/04 06:02:29;;;;;;;0.20;0.20;;;4.80;99.90;;;;;;5053138;28;20021;-71
2023/03/04 06:04:55;;;;;;;0.20;0.20;;;4.70;99.90;;;;;;5055728;28;20029;-71
2023/03/04 06:07:20;;;;;;;0.17;0.17;;;4.80;99.90;;;;;;5056639;28;20021;-71
2023/03/04 06:09:46;;;;;;;0.10;0.10;;;4.70;99.90;;;;;;5055905;28;20036;-71
2023/03/04 06:12:11;;;;;;;0.20;0.20;;;4.70;99.90;;;;;;5037561;28;20027;-71
2023/03/04 06:14:37;;;;;;;0.15;0.15;;;4.70;99.90;;;;;;5055811;28;20074;-71
2023/03/04 06:17:03;;;;;;;0.20;0.20;;;4.70;99.90;;;;;;5056235;28;20064;-71
2023/03/04 06:19:29;;;;;;;0.10;0.10;;;4.70;99.90;;;;;;5056257;28;20129;-71
2023/03/04 06:21:54;;;;;;;0.10;0.10;;;4.70;99.90;;;;;;5055506;28;20029;-71
2023/03/04 06:24:20;;;;;;;0.20;0.20;;;4.70;99.90;;;;;;5053422;28;20033;-71
2023/03/04 06:26:45;;;;;;;0.20;0.20;;;4.60;99.90;;;;;;5051099;28;20474;-71
2023/03/04 06:29:11;;;;;;;0.20;0.20;;;4.60;99.90;;;;;;5055904;28;20075;-71
2023/03/04 06:31:36;;;;;;;0.20;0.20;;;4.60;99.90;;;;;;5055477;28;20410;-71
2023/03/04 06:34:02;;;;;;;0.20;0.20;;;4.50;99.90;;;;;;5056324;28;20079;-71
2023/03/04 06:36:28;;;;;;;0.20;0.20;;;4.60;99.90;;;;;;5055192;28;20044;-71
2023/03/04 06:38:53;;;;;;;0.20;0.20;;;4.60;99.90;;;;;;5055873;28;20417;-71
2023/03/04 06:41:19;;;;;;;0.20;0.20;;;4.50;99.90;;;;;;5036965;28;20054;-71
2023/03/04 06:43:44;;;;;;;0.20;0.20;;;4.50;99.90;;;;;;5055664;28;20031;-72
2023/03/04 06:46:10;;;;;;;0.20;0.20;;;4.60;99.90;;;;;;5055143;28;20083;-71
2023/03/04 06:48:36;;;;;;;0.20;0.20;;;4.60;99.90;;;;;;5055663;28;20036;-71
2023/03/04 06:51:08;;;;;;;0.20;0.20;;;4.60;99.90;;;;;;5036952;28;20029;-71
2023/03/04 06:53:35;;;;;;;0.20;0.20;;;4.60;99.90;;;;;;5042776;28;20056;-71
2023/03/04 06:56:00;;;;;;;0.10;0.10;;;4.60;99.90;;;;;;5035588;28;20102;-71
2023/03/04 06:58:26;;;;;;;0.10;0.10;;;4.60;99.90;;;;;;5040501;28;20576;-71
2023/03/04 07:00:51;;;;;;;0.17;0.17;;;4.60;99.90;;;;;;5054982;28;20536;-71
2023/03/04 07:03:17;;;;;;;0.20;0.20;;;4.60;99.90;;;;;;5054636;28;20023;-71
2023/03/04 07:05:42;;;;;;;0.20;0.20;;;4.60;99.90;;;;;;5053051;28;20056;-72
2023/03/04 07:08:08;;;;;;;0.22;0.22;;;4.60;99.90;;;;;;5054347;28;20049;-71
2023/03/04 07:10:34;;;;;;;0.20;0.20;;;4.60;99.90;;;;;;5055143;28;20438;-71
2023/03/04 07:13:00;;;;;;;0.22;0.22;;;4.60;99.90;;;;;;5054764;28;20365;-72
2023/03/04 07:15:25;;;;;;;0.20;0.20;;;4.60;99.90;;;;;;5051398;28;20032;-72
2023/03/04 07:17:51;;;;;;;0.20;0.20;;;4.60;99.90;;;;;;5041941;28;20033;-72
2023/03/04 07:20:17;;;;;;;0.20;0.20;;;4.60;99.90;;;;;;5054957;28;20025;-72
2023/03/04 07:22:42;;;;;;;0.17;0.17;;;4.60;99.90;;;;;;5054715;28;20505;-71
2023/03/04 07:25:08;;;;;;;0.20;0.20;;;4.60;99.90;;;;;;5054809;28;20032;-71
2023/03/04 07:27:34;;;;;;;0.20;0.20;;;4.60;99.90;;;;;;5054720;28;20017;-71
2023/03/04 07:30:00;;;;;;;0.25;0.25;;;4.60;99.90;;;;;;5036289;28;20031;-71
2023/03/04 07:32:26;;;;;;;0.20;0.20;;;4.60;99.90;;;;;;5054769;28;20493;-71
2023/03/04 07:34:51;;;;;;;0.20;0.20;;;4.60;99.90;;;;;;5036370;28;20036;-71
2023/03/04 07:37:17;;;;;;;0.28;0.28;;;4.70;99.90;;;;;;5054421;28;20021;-71
2023/03/04 07:39:42;;;;;;;0.20;0.20;;;4.60;99.90;;;;;;5036332;28;20025;-71
2023/03/04 07:42:08;;;;;;;0.20;0.20;;;4.70;99.90;;;;;;5036888;28;20474;-71
2023/03/04 07:44:33;;;;;;;0.20;0.20;;;4.70;99.90;;;;;;5054306;28;20025;-71
2023/03/04 07:46:59;;;;;;;0.20;0.20;;;4.60;99.90;;;;;;5054527;28;20029;-71
2023/03/04 07:49:24;;;;;;;0.10;0.10;;;4.70;99.90;;;;;;5054612;28;20032;-71
2023/03/04 07:51:50;;;;;;;0.17;0.17;;;4.70;99.90;;;;;;5054343;28;20028;-71
2023/03/04 07:54:18;;;;;;;0.20;0.20;;;4.70;99.90;;;;;;5044792;28;20048;-72
2023/03/04 07:56:44;;;;;;;0.10;0.10;;;4.80;99.90;;;;;;5034623;28;20474;-72
2023/03/04 07:59:10;;;;;;;0.20;0.20;;;4.80;99.90;;;;;;5034436;28;20103;-72
2023/03/04 08:01:36;;;;;;;0.20;0.20;;;4.80;99.90;;;;;;5034264;28;20030;-72
2023/03/04 08:04:03;;;;;;;0.20;0.20;;;4.80;99.90;;;;;;5053955;28;20090;-72
2023/03/04 08:06:29;;;;;;;0.20;0.20;;;4.80;99.90;;;;;;5053903;28;20033;-72
2023/03/04 08:09:01;;;;;;;0.20;0.20;;;4.80;99.90;;;;;;5054149;28;20512;-72
2023/03/04 08:11:30;;;;;;;0.20;0.20;;;4.80;99.90;;;;;;5054400;28;20612;-72
2023/03/04 08:13:57;;;;;;;0.20;0.20;;;4.80;99.90;;;;;;5040825;28;20432;-72
2023/03/04 08:16:23;;;;;;;0.20;0.20;;;4.90;99.90;;;;;;5057794;28;20036;-71
2023/03/04 08:18:54;;;;;;;0.20;0.20;;;4.90;99.90;;;;;;5058418;28;20116;-72
2023/03/04 08:21:21;;;;;;;0.20;0.20;;;4.80;99.90;;;;;;5058004;28;20025;-71
2023/03/04 08:23:47;;;;;;;0.20;0.20;;;4.90;99.90;;;;;;5039786;28;20029;-72
2023/03/04 08:26:23;;;;;;;0.20;0.20;;;4.90;99.90;;;;;;5058425;28;20108;-70
2023/03/04 08:28:49;;;;;;;0.20;0.20;;;5.00;99.90;;;;;;5057598;28;20020;-71
2023/03/04 08:31:16;;;;;;;0.20;0.20;;;5.00;99.90;;;;;;5056651;28;20062;-71
2023/03/04 08:33:42;;;;;;;0.20;0.20;;;5.10;99.90;;;;;;5056614;28;20545;-71
2023/03/04 08:36:08;;;;;;;0.20;0.20;;;5.00;99.90;;;;;;5038471;28;20057;-71
2023/03/04 08:38:34;;;;;;;0.20;0.20;;;5.10;99.90;;;;;;5051309;28;20037;-71
2023/03/04 08:41:02;;;;;;;0.20;0.20;;;5.30;99.90;;;;;;5043548;28;20031;-71
2023/03/04 08:43:28;;;;;;;0.15;0.15;;;5.60;99.90;;;;;;5052440;28;20028;-72
2023/03/04 08:45:55;;;;;;;0.20;0.20;;;5.70;99.90;;;;;;5056341;28;20029;-72
2023/03/04 08:48:21;;;;;;;0.30;0.30;;;5.80;99.90;;;;;;5054413;28;20611;-72
2023/03/04 08:50:47;;;;;;;0.20;0.20;;;5.80;99.90;;;;;;5056366;28;20063;-71
2023/03/04 08:53:13;;;;;;;0.20;0.20;;;5.90;99.90;;;;;;5055478;28;20489;-72
2023/03/04 08:55:40;;;;;;;0.20;0.20;;;6.00;99.90;;;;;;5037293;28;20105;-72
2023/03/04 08:58:06;;;;;;;0.30;0.30;;;5.90;99.90;;;;;;5036047;28;20033;-71
2023/03/04 09:00:33;;;;;;;0.10;0.10;;;6.10;99.90;;;;;;5052778;28;20064;-71
2023/03/04 09:02:58;;;;;;;0.20;0.20;;;6.30;99.90;;;;;;5055961;28;20025;-71
2023/03/04 09:05:24;;;;;;;0.20;0.20;;;6.30;99.90;;;;;;5055206;28;20025;-72
2023/03/04 09:07:50;;;;;;;0.20;0.20;;;6.30;99.90;;;;;;5055895;28;20021;-72
2023/03/04 09:10:15;;;;;;;0.20;0.20;;;6.20;99.90;;;;;;5056340;28;20387;-72
2023/03/04 09:12:41;;;;;;;0.10;0.10;;;6.10;99.90;;;;;;5055942;28;20131;-71
2023/03/04 09:15:07;;;;;;;0.20;0.20;;;5.90;99.90;;;;;;5054520;28;20394;-71
2023/03/04 09:17:32;;;;;;;0.20;0.20;;;5.70;99.90;;;;;;5038911;28;20037;-71
2023/03/04 09:19:58;;;;;;;0.30;0.30;;;5.70;99.90;;;;;;5055906;28;20021;-71
2023/03/04 09:22:24;;;;;;;0.20;0.20;;;5.70;99.90;;;;;;5056302;28;20105;-72
2023/03/04 09:24:49;;;;;;;0.20;0.20;;;5.70;99.90;;;;;;5056040;28;20033;-71
2023/03/04 09:27:15;;;;;;;0.15;0.15;;;5.90;99.90;;;;;;5055325;28;20036;-71
2023/03/04 09:29:42;;;;;;;0.20;0.20;;;5.90;99.90;;;;;;5055556;28;20029;-71
2023/03/04 09:32:07;;;;;;;0.20;0.20;;;6.10;99.90;;;;;;5020416;28;1055211;-71
2023/03/04 09:34:33;;;;;;;0.30;0.30;;;6.00;99.90;;;;;;5056641;28;20498;-71
2023/03/04 09:36:58;;;;;;;0.20;0.20;;;6.20;99.90;;;;;;5056970;28;20478;-72
2023/03/04 09:39:24;;;;;;;0.22;0.22;;;6.30;99.90;;;;;;5056109;28;20064;-72
2023/03/04 09:41:56;;;;;;;0.20;0.20;;;6.30;99.90;;;;;;5057041;28;20044;-71
2023/03/04 09:44:23;;;;;;;0.30;0.30;;;6.10;99.90;;;;;;5056728;28;20025;-72
2023/03/04 09:46:50;;;;;;;0.20;0.20;;;6.10;99.90;;;;;;5036519;28;20399;-71
2023/03/04 09:49:18;;;;;;;0.20;0.20;;;6.10;99.90;;;;;;5036125;28;20620;-71
2023/03/04 09:51:55;;;;;;;0.20;0.20;;;6.10;99.90;;;;;;5036086;28;20115;-71
2023/03/04 09:54:47;;;;;;;0.20;0.20;;;6.00;99.90;;;;;;5030046;28;20025;-71
2023/03/04 09:57:29;;;;;;;0.20;0.20;;;6.00;99.90;;;;;;5055533;28;20163;-71
2023/03/04 10:00:11;;;;;;;0.17;0.17;;;6.10;99.90;;;;;;5056223;28;20017;-71
2023/03/04 10:03:04;;;;;;;0.20;0.20;;;5.90;99.90;;;;;;5038366;28;20070;-72
2023/03/04 10:05:40;;;;;;;0.23;0.23;;;6.10;99.90;;;;;;5056054;28;20074;-72
2023/03/04 10:08:32;;;;;;;0.20;0.20;;;6.00;99.90;;;;;;5056180;28;20134;-72
2023/03/04 10:10:59;;;;;;;0.20;0.20;;;5.80;99.90;;;;;;5048503;28;20036;-71
2023/03/04 10:13:39;;;;;;;0.20;0.20;;;5.80;99.90;;;;;;5056240;28;20032;-71
2023/03/04 10:16:08;;;;;;;0.10;0.10;;;5.70;99.90;;;;;;5056380;28;20548;-71
2023/03/04 10:18:40;;;;;;;0.13;0.13;;;5.70;99.90;;;;;;5055913;28;20531;-71
2023/03/04 10:21:25;;;;;;;0.20;0.20;;;5.80;99.90;;;;;;5055053;28;20148;-72
2023/03/04 10:23:53;;;;;;;0.20;0.20;;;6.10;99.90;;;;;;5053529;28;20428;-72
2023/03/04 10:26:21;;;;;;;0.20;0.20;;;6.10;99.90;;;;;;5050272;28;20118;-71
2023/03/04 10:28:47;;;;;;;0.20;0.20;;;6.20;99.90;;;;;;5040228;28;20057;-71
2023/03/04 10:31:42;;;;;;;0.30;0.30;;;6.20;99.90;;;;;;5054224;28;20032;-72
2023/03/04 10:34:11;;;;;;;0.20;0.20;;;6.20;99.90;;;;;;5053086;28;20031;-71
2023/03/04 10:36:50;;;;;;;0.20;0.20;;;6.20;99.90;;;;;;5054261;28;20029;-72
2023/03/04 10:39:20;;;;;;;0.10;0.10;;;6.50;99.90;;;;;;5039475;28;20067;-72
2023/03/04 10:41:56;;;;;;;0.20;0.20;;;6.90;99.90;;;;;;5035604;28;20026;-72
2023/03/04 10:44:22;;;;;;;0.20;0.20;;;6.90;99.90;;;;;;5045645;28;20520;-72
2023/03/04 10:46:49;;;;;;;0.20;0.20;;;6.60;99.90;;;;;;5054512;28;20021;-71
2023/03/04 10:49:17;;;;;;;0.20;0.20;;;6.80;99.90;;;;;;5034489;28;20025;-72
2023/03/04 10:51:49;;;;;;;0.20;0.20;;;7.10;99.90;;;;;;5035471;28;20025;-72
2023/03/04 10:54:33;;;;;;;0.13;0.13;;;7.20;99.90;;;;;;5035519;28;20018;-72
2023/03/04 10:57:21;;;;;;;0.20;0.20;;;6.80;99.90;;;;;;5035161;28;20451;-72
2023/03/04 10:59:56;;;;;;;0.20;0.20;;;6.50;99.90;;;;;;5044160;28;20021;-72
2023/03/04 11:02:32;;;;;;;0.20;0.20;;;6.40;99.90;;;;;;5055593;28;20037;-72
2023/03/04 11:05:21;;;;;;;0.20;0.20;;;7.00;99.90;;;;;;5055388;28;20037;-72
2023/03/04 11:07:52;;;;;;;0.20;0.20;;;7.60;99.90;;;;;;5037682;28;20048;-72
2023/03/04 11:10:34;;;;;;;0.20;0.20;;;7.40;99.90;;;;;;5054366;28;20083;-72
2023/03/04 11:13:10;;;;;;;0.20;0.20;;;6.90;99.90;;;;;;5055225;28;20021;-72
2023/03/04 11:15:57;;;;;;;0.20;0.20;;;6.60;99.90;;;;;;5054550;28;20490;-72
2023/03/04 11:18:45;;;;;;;0.20;0.20;;;7.00;99.90;;;;;;5054854;28;20021;-72
2023/03/04 11:21:20;;;;;;;0.20;0.20;;;7.60;99.90;;;;;;5054338;28;20510;-72
2023/03/04 11:23:51;;;;;;;0.20;0.20;;;7.90;99.90;;;;;;5053837;28;20119;-72
2023/03/04 11:26:27;;;;;;;0.20;0.20;;;7.40;99.90;;;;;;5055391;28;20036;-72
2023/03/04 11:28:55;;;;;;;0.17;0.17;;;7.20;99.90;;;;;;5054562;28;20025;-71
2023/03/04 11:31:33;;;;;;;0.20;0.20;;;7.10;99.90;;;;;;5050539;28;20033;-72
2023/03/04 11:34:26;;;;;;;0.20;0.20;;;7.50;99.90;;;;;;5054759;28;20021;-72
2023/03/04 11:36:58;;;;;;;0.20;0.20;;;7.50;99.90;;;;;;5053655;28;20033;-72
2023/03/04 11:39:37;;;;;;;0.20;0.20;;;7.40;99.90;;;;;;5054529;28;20029;-72
2023/03/04 11:42:23;;;;;;;0.10;0.10;;;7.40;99.90;;;;;;5052575;28;20071;-72
2023/03/04 11:44:50;;;;;;;0.20;0.20;;;7.10;99.90;;;;;;5053137;28;20100;-72
2023/03/04 11:47:47;;;;;;;0.20;0.20;;;7.30;99.90;;;;;;5052176;28;20099;-72
2023/03/04 11:50:26;;;;;;;0.20;0.20;;;7.80;99.90;;;;;;5016224;28;20104;-72
2023/03/04 11:53:13;;;;;;;0.20;0.20;;;8.20;99.90;;;;;;5053338;28;20115;-72
2023/03/04 11:56:19;;;;;;;0.30;0.30;;;8.40;99.90;;;;;;5053083;28;20099;-72
2023/03/04 11:59:03;;;;;;;0.20;0.20;;;8.10;99.90;;;;;;5042090;28;20071;-72
2023/03/04 12:01:43;;;;;;;0.30;0.30;;;8.00;99.90;;;;;;5053240;28;20025;-72
2023/03/04 12:04:47;;;;;;;0.20;0.20;;;8.00;99.90;;;;;;5052942;28;20482;-72
2023/03/04 12:07:45;;;;;;;0.20;0.20;;;8.50;99.90;;;;;;5053126;28;20490;-74
2023/03/04 12:10:13;;;;;;;0.20;0.20;;;8.10;99.90;;;;;;5053477;28;20452;-73
2023/03/04 12:13:05;;;;;;;0.30;0.30;;;7.80;99.90;;;;;;5053157;28;20022;-73
2023/03/04 12:15:40;;;;;;;0.20;0.20;;;7.60;99.90;;;;;;5052893;28;20440;-73
2023/03/04 12:18:08;;;;;;;0.25;0.25;;;7.60;99.90;;;;;;5053102;28;20386;-73
2023/03/04 12:21:11;;;;;;;0.20;0.20;;;7.50;99.90;;;;;;5052676;28;20031;-73
2023/03/04 12:24:02;;;;;;;0.20;0.20;;;7.60;99.90;;;;;;5053026;28;20036;-73
2023/03/04 12:26:51;;;;;;;0.20;0.20;;;7.70;99.90;;;;;;5034773;28;20604;-73
2023/03/04 12:29:44;;;;;;;0.30;0.30;;;7.70;99.90;;;;;;5053239;28;20021;-73
2023/03/04 12:33:04;;;;;;;0.30;0.30;;;8.30;99.90;;;;;;5052597;28;20037;-73
2023/03/04 12:35:36;;;;;;;0.20;0.20;;;8.50;99.90;;;;;;5010893;28;20165;-73
2023/03/04 12:38:29;;;;;;;0.20;0.20;;;8.60;99.90;;;;;;5046004;28;20055;-73
2023/03/04 12:41:00;;;;;;;0.20;0.20;;;9.30;99.90;;;;;;5052580;28;20112;-73
2023/03/04 12:43:30;;;;;;;0.20;0.20;;;9.80;99.90;;;;;;5053161;28;20749;-73
2023/03/04 12:46:18;;;;;;;0.13;0.13;;;10.10;99.90;;;;;;5052513;28;20055;-73
2023/03/04 12:48:56;;;;;;;0.20;0.20;;;10.60;99.90;;;;;;5052836;28;20025;-73
2023/03/04 12:51:29;;;;;;;0.20;0.20;;;10.40;99.90;;;;;;5052724;28;20025;-73
2023/03/04 12:54:07;;;;;;;0.20;0.20;;;9.80;99.90;;;;;;5052472;28;20032;-73
2023/03/04 12:56:45;;;;;;;0.20;0.20;;;9.10;99.90;;;;;;5052449;28;20124;-73
2023/03/04 12:59:19;;;;;;;0.10;0.10;;;8.50;99.90;;;;;;5037678;28;20075;-73
2023/03/04 13:02:01;;;;;;;0.17;0.17;;;8.30;99.90;;;;;;5055989;28;20486;-73
2023/03/04 13:04:35;;;;;;;0.10;0.10;;;8.10;99.90;;;;;;5056029;28;20025;-73
2023/03/04 13:07:18;;;;;;;0.20;0.20;;;8.40;99.90;;;;;;5056193;28;20116;-73
2023/03/04 13:09:56;;;;;;;0.20;0.20;;;9.50;99.90;;;;;;5055842;28;20028;-73